Time;durP1;ratioP1;P1;durP2;ratioP2;P2;SDS_P1;SDS_P2;PMS_P1;PMS_P2;Temp;Humidity;BMP_temperature;BMP_pressure;BME280_temperature;BME280_humidity;BME280_pressure;Samples;Min_cycle;Max_cycle;Signal;HPM_P1;HPM_P2
2022/12/21 00:02:03;;;;;;;85.00;33.00;;;;;;;-1.04;79.05;95823.84;4975106;28;20180;-77
2022/12/21 00:04:28;;;;;;;71.13;31.37;;;;;;;-1.08;79.30;95827.59;4983916;28;20216;-77
2022/12/21 00:06:54;;;;;;;87.27;32.63;;;;;;;-1.14;79.53;95826.31;4989022;28;20275;-79
2022/12/21 00:09:19;;;;;;;83.27;35.53;;;;;;;-1.43;80.27;95779.41;4990653;28;20177;-77
2022/12/21 00:11:45;;;;;;;105.90;41.13;;;;;;;-1.12;80.55;95821.81;4975971;28;20174;-77
2022/12/21 00:14:10;;;;;;;88.20;37.70;;;;;;;-1.29;80.19;95792.09;4976167;28;20174;-77
2022/12/21 00:16:37;;;;;;;88.93;37.83;;;;;;;-1.21;80.65;95825.91;4976360;28;20182;-77
2022/12/21 00:19:03;;;;;;;98.13;38.37;;;;;;;-1.46;80.81;95773.66;4976855;28;20202;-78
2022/12/21 00:21:32;;;;;;;116.67;42.80;;;;;;;-1.36;80.48;95770.25;4977745;28;20563;-77
2022/12/21 00:23:59;;;;;;;112.33;40.90;;;;;;;-1.11;80.35;95809.72;4976829;28;20657;-77
2022/12/21 00:26:26;;;;;;;114.50;44.23;;;;;;;-1.22;80.90;95813.97;4994035;28;20256;-76
2022/12/21 00:28:54;;;;;;;108.63;41.07;;;;;;;-1.36;80.90;95793.50;4995265;28;20169;-77
2022/12/21 00:31:28;;;;;;;98.93;39.13;;;;;;;-1.15;80.79;95815.16;4990525;28;20177;-77
2022/12/21 00:33:55;;;;;;;85.80;35.47;;;;;;;-1.59;80.30;95745.38;4974404;28;20220;-77
2022/12/21 00:36:22;;;;;;;90.88;42.63;;;;;;;-1.15;80.84;95814.31;4974031;28;20449;-77
2022/12/21 00:38:48;;;;;;;72.47;33.47;;;;;;;-1.16;80.61;95803.16;4975665;28;20623;-77
2022/12/21 00:41:17;;;;;;;68.70;30.87;;;;;;;-1.20;80.67;95806.91;4992897;28;20181;-77
2022/12/21 00:43:43;;;;;;;64.53;25.93;;;;;;;-1.19;81.23;95803.38;4990377;28;20256;-77
2022/12/21 00:46:30;;;;;;;64.27;27.57;;;;;;;-1.23;81.02;95801.16;4975439;28;20731;-77
2022/12/21 00:49:01;;;;;;;53.47;24.93;;;;;;;-1.26;79.85;95796.22;4981503;28;20185;-77
2022/12/21 00:51:28;;;;;;;76.80;29.67;;;;;;;-1.22;80.24;95801.06;4986726;28;20184;-77
2022/12/21 00:53:55;;;;;;;80.77;31.47;;;;;;;-1.28;81.00;95792.91;4994975;28;20216;-77
2022/12/21 00:56:21;;;;;;;66.43;28.37;;;;;;;-1.41;80.58;95756.91;4986234;28;20700;-77
2022/12/21 00:58:48;;;;;;;67.73;27.60;;;;;;;-1.25;80.45;95782.38;4978822;28;20227;-77
2022/12/21 01:01:17;;;;;;;65.87;25.43;;;;;;;-1.32;79.71;95753.63;4994434;28;20181;-76
2022/12/21 01:03:43;;;;;;;68.03;28.37;;;;;;;-1.68;79.81;95697.84;4994174;28;20169;-77
2022/12/21 01:06:24;;;;;;;62.10;29.57;;;;;;;-1.41;79.55;95745.75;4994436;28;20263;-77
2022/12/21 01:08:50;;;;;;;69.53;29.77;;;;;;;-1.24;79.91;95773.69;4994096;28;20177;-76
2022/12/21 01:11:18;;;;;;;72.30;30.10;;;;;;;-1.26;80.19;95773.81;4993594;28;20622;-77
2022/12/21 01:13:45;;;;;;;76.00;31.60;;;;;;;-1.40;80.45;95753.38;4994452;28;20890;-77
2022/12/21 01:16:13;;;;;;;64.27;29.70;;;;;;;-1.45;80.29;95739.16;4994100;28;20177;-77
2022/12/21 01:18:38;;;;;;;83.40;36.30;;;;;;;-1.46;80.44;95747.84;4994340;28;20228;-77
2022/12/21 01:21:04;;;;;;;87.73;38.33;;;;;;;-1.28;81.07;95774.84;4992349;28;20189;-77
2022/12/21 01:23:29;;;;;;;92.43;35.07;;;;;;;-1.30;80.86;95777.56;4974672;28;20178;-77
2022/12/21 01:25:55;;;;;;;96.03;38.43;;;;;;;-1.57;81.39;95746.91;4975642;28;20192;-76
2022/12/21 01:28:20;;;;;;;98.00;38.80;;;;;;;-1.52;80.98;95744.78;4986649;28;20206;-77
2022/12/21 01:30:46;;;;;;;99.83;39.33;;;;;;;-1.39;81.67;95770.53;4993901;28;20189;-76
2022/12/21 01:33:16;;;;;;;101.83;39.30;;;;;;;-1.41;81.19;95767.22;4994127;28;20188;-77
2022/12/21 01:35:42;;;;;;;107.43;37.20;;;;;;;-1.46;81.94;95761.56;4980146;28;20180;-77
2022/12/21 01:38:09;;;;;;;94.57;38.80;;;;;;;-1.47;82.24;95769.44;4973753;28;20205;-77
2022/12/21 01:40:35;;;;;;;94.37;35.63;;;;;;;-1.67;82.25;95734.78;4975959;28;20264;-77
2022/12/21 01:43:01;;;;;;;80.80;32.53;;;;;;;-1.41;82.32;95756.06;4988835;28;20177;-77
2022/12/21 01:45:32;;;;;;;69.20;27.40;;;;;;;-1.35;81.61;95760.75;4984236;28;20693;-77
2022/12/21 01:48:01;;;;;;;59.73;24.70;;;;;;;-1.40;81.70;95743.06;4993349;28;20239;-77
2022/12/21 01:50:45;;;;;;;42.20;19.07;;;;;;;-1.46;81.31;95738.34;4984100;28;20647;-77
2022/12/21 01:53:21;;;;;;;38.73;18.07;;;;;;;-1.44;81.29;95751.94;4986513;28;20772;-77
2022/12/21 01:55:50;;;;;;;46.57;19.77;;;;;;;-1.67;81.40;95711.56;4974425;28;20197;-77
2022/12/21 01:58:18;;;;;;;45.33;20.60;;;;;;;-1.51;81.40;95740.44;4989236;28;20216;-77
2022/12/21 02:00:43;;;;;;;55.53;22.47;;;;;;;-1.47;81.21;95739.25;4993258;28;20177;-77
2022/12/21 02:03:16;;;;;;;57.20;22.13;;;;;;;-1.45;81.29;95736.56;4992194;28;20181;-77
2022/12/21 02:05:41;;;;;;;65.50;24.20;;;;;;;-1.40;81.25;95734.47;4991774;28;20313;-77
2022/12/21 02:08:07;;;;;;;57.10;23.40;;;;;;;-1.60;80.55;95711.00;4993356;28;20256;-77
2022/12/21 02:10:33;;;;;;;73.03;30.47;;;;;;;-2.13;80.92;95627.31;4993128;28;20184;-77
2022/12/21 02:13:02;;;;;;;69.13;30.70;;;;;;;-1.46;81.44;95737.50;4977356;28;20165;-77
2022/12/21 02:15:44;;;;;;;72.07;29.53;;;;;;;-1.48;81.76;95735.06;4986007;28;20176;-77
2022/12/21 02:18:22;;;;;;;71.10;32.17;;;;;;;-1.79;80.98;95678.94;4994269;28;20266;-77
2022/12/21 02:21:05;;;;;;;78.27;33.57;;;;;;;-1.51;81.52;95730.13;4993177;28;20615;-77
2022/12/21 02:23:53;;;;;;;73.20;33.50;;;;;;;-1.66;82.07;95713.22;5003569;28;20229;-77
2022/12/21 02:26:47;;;;;;;70.27;31.73;;;;;;;-1.71;82.04;95705.81;5000837;28;20185;-77
2022/12/21 02:29:22;;;;;;;67.63;31.63;;;;;;;-1.62;82.78;95719.78;4973910;28;20189;-77
2022/12/21 02:32:00;;;;;;;86.45;42.78;;;;;;;-1.69;82.38;95709.09;4972847;28;20422;-77
2022/12/21 02:35:03;;;;;;;80.53;37.90;;;;;;;-1.69;81.71;95706.53;4982641;28;20653;-75
2022/12/21 02:37:57;;;;;;;77.90;29.70;;;;;;;-1.86;81.41;95670.84;4973604;28;20165;-75
2022/12/21 02:40:55;;;;;;;69.10;31.47;;;;;;;-1.57;81.48;95725.44;4973448;28;20181;-75
2022/12/21 02:46:51;;;;;;;59.13;25.90;;;;;;;-1.78;81.26;95681.41;4975820;28;20248;-76
2022/12/21 02:49:26;;;;;;;61.53;24.13;;;;;;;-1.50;81.50;95724.03;4982476;28;20184;-75
2022/12/21 02:52:23;;;;;;;51.87;23.33;;;;;;;-1.49;81.40;95717.09;4992587;28;20180;-75
2022/12/21 02:54:56;;;;;;;56.03;22.97;;;;;;;-1.56;81.17;95709.00;4971745;28;20272;-75
2022/12/21 02:57:31;;;;;;;50.23;22.13;;;;;;;-1.62;81.91;95712.03;4981925;28;20724;-76
2022/12/21 02:59:56;;;;;;;49.67;21.77;;;;;;;-1.67;81.53;95711.56;4974680;28;20590;-75
2022/12/21 03:02:22;;;;;;;51.07;22.00;;;;;;;-1.67;81.12;95709.00;4987769;28;20181;-76
2022/12/21 03:04:59;;;;;;;47.03;20.90;;;;;;;-1.64;81.14;95706.16;4992178;28;20224;-75
2022/12/21 03:07:28;;;;;;;45.60;20.87;;;;;;;-1.67;81.12;95701.25;4976439;28;20188;-76
2022/12/21 03:10:16;;;;;;;53.40;21.57;;;;;;;-1.71;81.36;95703.22;4972654;28;20244;-75
2022/12/21 03:13:05;;;;;;;37.57;18.07;;;;;;;-1.69;81.21;95696.19;4962469;28;20197;-75
2022/12/21 03:15:42;;;;;;;42.50;18.23;;;;;;;-1.70;81.83;95704.06;4972790;28;20240;-75
2022/12/21 03:18:24;;;;;;;38.47;17.80;;;;;;;-1.69;81.57;95697.94;4977787;28;20200;-75
2022/12/21 03:21:02;;;;;;;39.63;15.80;;;;;;;-1.73;81.79;95697.34;4991923;28;20707;-75
2022/12/21 03:23:46;;;;;;;45.50;20.00;;;;;;;-1.73;82.10;95694.78;4991819;28;20911;-75
2022/12/21 03:26:23;;;;;;;43.23;17.60;;;;;;;-1.74;82.09;95693.16;4965395;28;20189;-75
2022/12/21 03:28:53;;;;;;;35.33;17.60;;;;;;;-1.69;81.86;95685.06;4971172;28;20177;-75
2022/12/21 03:31:24;;;;;;;28.93;15.17;;;;;;;-1.86;81.86;95644.22;4984828;28;20204;-75
2022/12/21 03:33:58;;;;;;;34.73;17.40;;;;;;;-1.62;80.96;95670.75;4991348;28;20176;-75
2022/12/21 03:36:42;;;;;;;41.70;17.57;;;;;;;-1.69;81.59;95661.81;4979425;28;20177;-75
2022/12/21 03:39:12;;;;;;;39.03;17.73;;;;;;;-2.13;80.96;95585.22;4972308;28;20209;-75
2022/12/21 03:41:53;;;;;;;45.40;18.93;;;;;;;-1.89;80.58;95629.78;4971158;28;20182;-75
2022/12/21 03:44:28;;;;;;;51.03;18.40;;;;;;;-2.05;80.87;95599.19;4991609;28;20181;-75
2022/12/21 03:47:02;;;;;;;43.30;18.63;;;;;;;-1.82;80.69;95632.75;4990438;28;20180;-75
2022/12/21 03:49:57;;;;;;;43.27;17.10;;;;;;;-1.70;81.15;95657.59;4964677;28;20181;-75
2022/12/21 03:52:28;;;;;;;36.03;18.13;;;;;;;-1.81;81.27;95637.75;4971269;28;20193;-75
2022/12/21 03:55:22;;;;;;;39.43;17.20;;;;;;;-1.76;81.79;95640.84;4985677;28;20183;-76
2022/12/21 03:57:50;;;;;;;41.20;17.27;;;;;;;-1.68;81.71;95645.41;4990817;28;20201;-76
2022/12/21 04:00:16;;;;;;;40.10;17.70;;;;;;;-1.67;81.70;95649.63;4991817;28;20181;-75
2022/12/21 04:02:57;;;;;;;41.80;18.37;;;;;;;-1.64;81.64;95651.97;4989045;28;20565;-75
2022/12/21 04:05:41;;;;;;;40.03;18.33;;;;;;;-1.64;80.85;95651.97;4983488;28;20596;-76
2022/12/21 04:08:07;;;;;;;45.53;18.30;;;;;;;-1.91;81.05;95611.88;4973018;28;20186;-76
2022/12/21 04:10:32;;;;;;;70.27;29.73;;;;;;;-1.70;80.90;95655.03;4972025;28;20556;-76
2022/12/21 04:12:58;;;;;;;83.00;36.70;;;;;;;-1.69;81.48;95643.75;4984295;28;20712;-76
2022/12/21 04:16:03;;;;;;;140.73;52.60;;;;;;;-1.81;81.87;95632.59;4984298;28;20441;-76
2022/12/21 04:18:12;;;;;;;141.37;51.03;;;;;;;-2.03;82.06;95594.72;4985278;28;20205;-76
2022/12/21 04:20:37;;;;;;;181.57;68.90;;;;;;;-1.74;82.94;95645.88;4982991;28;20438;-76
2022/12/21 04:28:32;;;;;;;157.87;53.57;;;;;;;-1.76;82.47;95640.84;4971905;28;20184;-73
2022/12/21 04:30:59;;;;;;;145.77;50.93;;;;;;;-1.74;82.41;95635.56;4971321;28;20269;-73
2022/12/21 04:33:27;;;;;;;155.73;54.07;;;;;;;-1.72;82.16;95634.50;4971222;28;20174;-74
2022/12/21 04:38:39;;;;;;;165.83;54.40;;;;;;;-1.75;82.01;95614.09;4970930;28;20216;-76
2022/12/21 04:41:05;;;;;;;143.17;54.53;;;;;;;-1.61;81.27;95626.75;4967727;28;20186;-76
2022/12/21 04:43:30;;;;;;;144.83;50.63;;;;;;;-1.61;81.39;95616.44;4971763;28;20248;-75
2022/12/21 04:46:04;;;;;;;150.03;51.37;;;;;;;-1.57;81.67;95627.34;4971718;28;20189;-76
2022/12/21 04:48:30;;;;;;;154.43;51.53;;;;;;;-1.62;81.47;95626.88;4973527;28;20217;-76
2022/12/21 04:50:56;;;;;;;136.87;51.43;;;;;;;-2.02;82.03;95574.94;4981731;28;20636;-76
2022/12/21 04:53:22;;;;;;;147.97;50.93;;;;;;;-1.75;81.96;95621.03;4994576;28;20188;-76
2022/12/21 04:55:48;;;;;;;150.33;52.13;;;;;;;-1.75;81.69;95628.75;4980701;28;20212;-76
2022/12/21 04:58:13;;;;;;;137.73;51.63;;;;;;;-1.77;82.25;95621.13;4974979;28;20284;-76
2022/12/21 05:00:39;;;;;;;131.40;51.67;;;;;;;-1.85;81.91;95599.44;4975070;28;20542;-77
2022/12/21 05:03:05;;;;;;;139.37;48.83;;;;;;;-1.74;82.11;95620.09;4980013;28;20186;-76
2022/12/21 05:05:30;;;;;;;125.30;50.43;;;;;;;-1.84;82.78;95608.81;4993660;28;20287;-76
2022/12/21 05:07:56;;;;;;;134.47;50.40;;;;;;;-1.71;82.24;95625.81;4982773;28;20193;-76
2022/12/21 05:10:22;;;;;;;143.70;50.43;;;;;;;-1.72;81.42;95629.31;4980224;28;20757;-76
2022/12/21 05:12:47;;;;;;;135.27;50.57;;;;;;;-1.70;81.61;95631.78;4974781;28;20191;-76
2022/12/21 05:15:13;;;;;;;152.30;52.17;;;;;;;-1.69;81.17;95629.09;4974670;28;20292;-76
2022/12/21 05:17:41;;;;;;;147.67;53.63;;;;;;;-2.17;81.44;95568.34;4974770;28;20181;-76
2022/12/21 05:20:06;;;;;;;140.30;54.00;;;;;;;-1.82;82.08;95627.59;4973555;28;20201;-76
2022/12/21 05:22:32;;;;;;;130.77;51.67;;;;;;;-1.78;82.11;95622.06;4974840;28;20178;-76
2022/12/21 05:24:58;;;;;;;132.87;53.87;;;;;;;-1.80;81.91;95625.69;4983623;28;20213;-73
2022/12/21 05:27:24;;;;;;;132.07;48.17;;;;;;;-1.80;82.18;95620.53;4976603;28;20182;-75
2022/12/21 05:29:49;;;;;;;130.23;49.20;;;;;;;-1.76;81.32;95620.19;4973466;28;20698;-77
2022/12/21 05:32:14;;;;;;;121.23;46.20;;;;;;;-1.81;81.73;95617.13;4973578;28;20601;-75
2022/12/21 05:34:40;;;;;;;129.97;48.87;;;;;;;-1.83;81.52;95625.94;4982778;28;20590;-76
2022/12/21 05:37:06;;;;;;;126.47;48.73;;;;;;;-1.84;82.37;95617.38;4982079;28;20178;-76
2022/12/21 05:39:31;;;;;;;132.00;49.47;;;;;;;-1.86;81.79;95610.69;4983230;28;20212;-76
2022/12/21 05:41:57;;;;;;;140.87;48.00;;;;;;;-2.01;81.48;95582.53;4993373;28;20185;-76
2022/12/21 05:44:22;;;;;;;148.20;52.30;;;;;;;-1.84;81.55;95614.81;4992918;28;20263;-75
2022/12/21 05:46:47;;;;;;;155.43;56.10;;;;;;;-1.81;81.40;95621.47;4992751;28;20185;-76
2022/12/21 05:49:13;;;;;;;140.63;51.97;;;;;;;-1.79;81.82;95617.84;4993055;28;20200;-75
2022/12/21 05:51:38;;;;;;;132.47;49.97;;;;;;;-1.99;81.72;95582.44;4993210;28;20710;-76
2022/12/21 05:54:05;;;;;;;171.53;67.03;;;;;;;-1.74;82.00;95620.09;4991815;28;20428;-76
2022/12/21 05:56:30;;;;;;;144.17;55.80;;;;;;;-2.10;81.99;95570.34;4991275;28;20255;-76
2022/12/21 05:58:56;;;;;;;143.07;52.80;;;;;;;-2.18;82.07;95564.13;4991894;28;20672;-76
2022/12/21 06:01:21;;;;;;;137.93;49.97;;;;;;;-1.91;82.19;95601.56;4982101;28;20178;-76
2022/12/21 06:03:48;;;;;;;144.83;52.53;;;;;;;-1.91;82.25;95593.81;4973782;28;20193;-75
2022/12/21 06:06:16;;;;;;;131.33;52.53;;;;;;;-2.03;81.12;95563.78;4991484;28;20401;-76
2022/12/21 06:08:42;;;;;;;130.33;53.57;;;;;;;-1.71;81.11;95625.00;4993465;28;20180;-75
2022/12/21 06:11:13;;;;;;;145.30;51.87;;;;;;;-1.67;81.85;95619.50;4992892;28;20181;-75
2022/12/21 06:13:38;;;;;;;145.93;55.53;;;;;;;-1.61;81.67;95610.44;4993103;28;20172;-75
2022/12/21 06:16:12;;;;;;;147.37;53.97;;;;;;;-1.58;81.04;95612.81;4993124;28;20618;-75
2022/12/21 06:18:38;;;;;;;144.43;61.83;;;;;;;-1.53;81.58;95614.06;4992781;28;20327;-75
2022/12/21 06:21:04;;;;;;;162.13;59.23;;;;;;;-1.57;81.96;95594.63;4993030;28;20214;-75
2022/12/21 06:23:29;;;;;;;140.83;55.83;;;;;;;-1.63;81.80;95573.59;4981940;28;20186;-75
2022/12/21 06:25:57;;;;;;;154.37;58.13;;;;;;;-1.40;81.52;95603.63;4986621;28;20208;-75
2022/12/21 06:28:24;;;;;;;166.63;59.53;;;;;;;-1.32;81.50;95610.78;4976506;28;20181;-76
2022/12/21 06:30:50;;;;;;;166.17;64.03;;;;;;;-1.25;81.31;95610.19;4973305;28;20209;-75
2022/12/21 06:33:17;;;;;;;168.63;64.63;;;;;;;-1.25;81.02;95586.13;4973275;28;20233;-75
2022/12/21 06:35:42;;;;;;;207.47;83.30;;;;;;;-1.06;81.38;95603.56;4973381;28;20181;-75
2022/12/21 06:38:07;;;;;;;215.00;91.53;;;;;;;-1.14;80.87;95573.19;4973656;28;20178;-77
2022/12/21 06:40:33;;;;;;;233.80;97.60;;;;;;;-0.85;79.94;95596.69;4971816;28;20267;-76
2022/12/21 06:42:58;;;;;;;250.63;97.20;;;;;;;-0.63;80.67;95611.28;4976708;28;20204;-75
2022/12/21 06:45:24;;;;;;;229.03;90.57;;;;;;;-0.18;80.25;95612.72;4993743;28;20220;-76
2022/12/21 06:47:53;;;;;;;193.83;79.77;;;;;;;0.42;78.56;95587.81;4992225;28;20169;-76
2022/12/21 06:50:20;;;;;;;148.70;61.67;;;;;;;1.00;74.67;95573.22;4978779;28;20181;-75
2022/12/21 06:52:49;;;;;;;148.33;60.33;;;;;;;1.83;72.81;95616.75;4972417;28;20675;-75
2022/12/21 06:55:25;;;;;;;;;;;;;;;;;;;;;
2022/12/21 06:57:51;;;;;;;207.53;89.77;;;;;;;3.52;65.62;95572.22;4961292;28;20184;-75
2022/12/21 07:00:18;;;;;;;153.33;70.03;;;;;;;4.76;61.12;95617.94;4966325;28;20198;-75
2022/12/21 07:02:43;;;;;;;149.67;65.90;;;;;;;5.27;57.34;95619.63;4976828;28;20182;-74
2022/12/21 07:05:09;;;;;;;120.47;56.40;;;;;;;5.39;56.72;95618.31;4969061;28;20225;-76
2022/12/21 07:07:34;;;;;;;167.03;77.13;;;;;;;5.88;57.88;95634.13;4985843;28;20184;-74
2022/12/21 07:10:00;;;;;;;124.30;55.67;;;;;;;6.01;56.89;95631.81;4992459;28;20176;-75
2022/12/21 07:12:25;;;;;;;71.57;31.70;;;;;;;5.94;55.41;95607.31;4980389;28;20761;-75
2022/12/21 07:14:50;;;;;;;48.70;22.80;;;;;;;5.98;54.50;95634.75;4972475;28;20174;-74
2022/12/21 07:17:16;;;;;;;40.27;21.17;;;;;;;5.74;54.37;95619.03;4971354;28;20551;-75
2022/12/21 07:19:41;;;;;;;39.70;20.90;;;;;;;5.63;54.65;95639.25;4972173;28;20201;-75
2022/12/21 07:22:06;;;;;;;41.77;20.00;;;;;;;5.47;55.38;95635.78;4972335;28;20618;-75
2022/12/21 07:24:32;;;;;;;45.00;19.37;;;;;;;5.34;55.86;95633.66;4971782;28;20177;-76
2022/12/21 07:26:57;;;;;;;42.63;18.83;;;;;;;5.31;56.21;95618.31;4978026;28;20637;-76
2022/12/21 07:29:22;;;;;;;33.10;18.03;;;;;;;5.76;55.07;95632.75;4991209;28;20173;-75
2022/12/21 07:31:48;;;;;;;43.40;19.43;;;;;;;6.23;53.51;95630.31;4979279;28;20736;-74
2022/12/21 07:34:13;;;;;;;46.70;20.97;;;;;;;6.54;52.32;95633.91;4972121;28;20228;-74
2022/12/21 07:36:39;;;;;;;41.90;19.83;;;;;;;6.81;51.41;95628.28;4980067;28;20205;-74
2022/12/21 07:39:04;;;;;;;43.97;21.47;;;;;;;6.86;50.11;95630.38;4977461;28;20206;-74
2022/12/21 07:41:30;;;;;;;45.23;19.27;;;;;;;6.65;51.01;95617.03;4971933;28;20173;-74
2022/12/21 07:43:55;;;;;;;40.77;20.00;;;;;;;5.94;51.23;95608.16;4972057;28;20192;-75
2022/12/21 07:46:22;;;;;;;47.67;21.63;;;;;;;5.28;54.06;95613.41;4971835;28;20598;-75
2022/12/21 07:48:49;;;;;;;42.87;21.17;;;;;;;4.68;57.05;95615.28;4990400;28;20255;-75
2022/12/21 07:51:14;;;;;;;41.60;21.57;;;;;;;4.37;58.46;95604.56;4991070;28;20204;-74
2022/12/21 07:53:40;;;;;;;50.07;22.63;;;;;;;4.63;59.26;95612.34;4990864;28;20196;-74
2022/12/21 07:56:12;;;;;;;42.67;22.57;;;;;;;5.45;56.63;95622.91;4979085;28;20272;-74
2022/12/21 07:58:38;;;;;;;48.27;22.57;;;;;;;6.04;54.47;95621.88;4971493;28;20255;-74
2022/12/21 08:01:09;;;;;;;47.87;23.37;;;;;;;7.08;52.89;95627.03;4971621;28;20261;-75
2022/12/21 08:03:36;;;;;;;70.30;27.87;;;;;;;8.91;48.08;95616.44;4962833;28;20178;-75
2022/12/21 08:06:02;;;;;;;64.60;31.70;;;;;;;10.72;42.72;95616.13;4968656;28;21024;-75
2022/12/21 08:08:28;;;;;;;64.53;30.47;;;;;;;12.61;39.43;95615.28;4969586;28;20166;-76
2022/12/21 08:10:53;;;;;;;58.30;28.93;;;;;;;13.83;35.98;95607.41;4971204;28;20671;-76
2022/12/21 08:13:18;;;;;;;53.10;25.13;;;;;;;14.45;34.64;95605.78;4971744;28;20184;-76
2022/12/21 08:15:44;;;;;;;47.13;23.03;;;;;;;14.49;33.01;95607.81;4978609;28;20176;-76
2022/12/21 08:18:09;;;;;;;47.70;24.20;;;;;;;14.40;34.15;95581.78;4981021;28;20602;-75
2022/12/21 08:20:35;;;;;;;44.77;20.63;;;;;;;14.10;33.35;95589.50;4979945;28;20173;-75
2022/12/21 08:23:01;;;;;;;42.57;21.77;;;;;;;13.69;34.19;95585.50;4994645;28;20316;-74
2022/12/21 08:25:26;;;;;;;40.23;21.77;;;;;;;13.23;34.43;95583.84;4983349;28;20202;-74
2022/12/21 08:27:52;;;;;;;34.33;17.80;;;;;;;13.25;35.48;95580.19;4975456;28;20181;-74
2022/12/21 08:30:17;;;;;;;34.70;18.73;;;;;;;12.90;35.04;95580.47;4975092;28;20617;-74
2022/12/21 08:32:43;;;;;;;38.10;20.17;;;;;;;12.75;35.96;95579.91;4979556;28;20617;-74
2022/12/21 08:35:09;;;;;;;37.23;20.73;;;;;;;12.14;36.77;95566.13;4994725;28;20169;-73
2022/12/21 08:37:34;;;;;;;57.23;22.37;;;;;;;11.77;38.00;95560.41;4994499;28;20192;-74
2022/12/21 08:40:00;;;;;;;42.57;23.20;;;;;;;11.16;37.91;95567.50;4993443;28;20631;-74
2022/12/21 08:42:25;;;;;;;47.27;22.93;;;;;;;10.74;39.44;95561.41;4995087;28;20185;-74
2022/12/21 08:44:50;;;;;;;50.83;25.13;;;;;;;10.27;40.00;95559.50;4994189;28;20280;-74
2022/12/21 08:47:16;;;;;;;45.43;24.27;;;;;;;9.80;40.85;95554.81;4994569;28;20675;-74
2022/12/21 08:49:41;;;;;;;54.80;22.97;;;;;;;9.46;42.38;95547.63;4994115;28;20185;-73
2022/12/21 08:52:06;;;;;;;39.00;22.00;;;;;;;9.39;42.75;95544.09;4994088;28;20210;-73
2022/12/21 08:54:32;;;;;;;42.83;20.57;;;;;;;9.25;42.36;95530.03;4994065;28;20173;-75
2022/12/21 08:56:57;;;;;;;47.33;20.97;;;;;;;9.13;42.62;95543.81;4994123;28;20252;-73
2022/12/21 08:59:25;;;;;;;37.57;20.47;;;;;;;8.87;43.61;95542.50;4983071;28;20204;-73
2022/12/21 09:01:51;;;;;;;41.20;21.83;;;;;;;8.75;43.44;95535.25;4964375;28;20662;-73
2022/12/21 09:04:17;;;;;;;41.77;19.23;;;;;;;8.61;44.03;95539.53;4974236;28;20229;-74
2022/12/21 09:06:42;;;;;;;42.10;19.83;;;;;;;8.62;44.51;95543.78;4974325;28;20209;-74
2022/12/21 09:09:08;;;;;;;39.10;20.60;;;;;;;8.54;44.18;95502.72;4974324;28;20177;-74
2022/12/21 09:11:34;;;;;;;38.60;19.93;;;;;;;8.68;43.87;95524.69;4974589;28;20640;-74
2022/12/21 09:14:00;;;;;;;41.27;21.30;;;;;;;8.69;44.18;95518.44;4982507;28;20174;-74
2022/12/21 09:16:25;;;;;;;41.50;21.60;;;;;;;8.47;44.94;95520.19;4974269;28;20170;-74
2022/12/21 09:18:51;;;;;;;41.27;20.53;;;;;;;8.49;45.87;95510.31;4974136;28;20586;-73
2022/12/21 09:21:19;;;;;;;43.73;21.43;;;;;;;8.41;45.00;95504.34;4974477;28;20174;-73
2022/12/21 09:23:44;;;;;;;41.57;20.77;;;;;;;8.38;46.04;95504.72;4974559;28;20228;-73
2022/12/21 09:26:10;;;;;;;41.43;21.27;;;;;;;8.20;44.64;95491.94;4974520;28;20927;-73
2022/12/21 09:28:36;;;;;;;47.03;22.67;;;;;;;7.66;45.02;95455.44;4974347;28;20196;-73
2022/12/21 09:31:16;;;;;;;45.87;22.07;;;;;;;7.75;46.12;95461.41;4973115;28;20280;-73
2022/12/21 09:33:43;;;;;;;51.07;22.23;;;;;;;7.81;46.13;95460.69;4974208;28;20611;-74
2022/12/21 09:36:09;;;;;;;36.27;20.53;;;;;;;7.96;45.61;95474.63;4991083;28;20521;-73
2022/12/21 09:38:36;;;;;;;43.00;19.43;;;;;;;7.75;46.08;95462.22;4993335;28;20880;-73
2022/12/21 09:41:19;;;;;;;36.07;19.70;;;;;;;7.86;46.20;95469.66;4993399;28;20188;-73
2022/12/21 09:43:56;;;;;;;42.50;20.30;;;;;;;7.99;46.47;95458.53;4993183;28;20196;-73
2022/12/21 09:46:22;;;;;;;44.87;21.43;;;;;;;7.87;46.62;95437.19;4993009;28;20181;-73
2022/12/21 09:49:01;;;;;;;47.20;22.00;;;;;;;7.85;45.81;95457.53;4978241;28;20246;-73
2022/12/21 09:51:33;;;;;;;51.27;23.57;;;;;;;7.83;47.03;95456.91;4975514;28;20177;-73
2022/12/21 09:54:12;;;;;;;46.17;21.40;;;;;;;7.86;46.71;95458.34;4973513;28;20178;-73
2022/12/21 09:56:45;;;;;;;40.83;22.60;;;;;;;7.89;47.00;95452.75;4973318;28;20185;-73
2022/12/21 09:59:14;;;;;;;47.17;23.33;;;;;;;7.85;47.59;95443.63;4973392;28;20241;-73
2022/12/21 10:02:00;;;;;;;51.40;24.83;;;;;;;7.86;47.76;95434.78;4991113;28;20224;-73
2022/12/21 10:04:43;;;;;;;44.97;23.90;;;;;;;7.81;47.08;95431.84;4992652;28;20216;-73
2022/12/21 10:07:20;;;;;;;55.07;29.47;;;;;;;7.77;47.97;95423.56;4988140;28;20193;-76
2022/12/21 10:10:12;;;;;;;53.73;26.57;;;;;;;7.71;48.47;95416.38;4973265;28;20184;-74
2022/12/21 10:13:04;;;;;;;55.63;28.30;;;;;;;7.56;48.44;95378.88;4970452;28;20190;-74
2022/12/21 10:15:38;;;;;;;59.70;28.27;;;;;;;7.76;48.43;95406.19;4968978;28;20307;-74
2022/12/21 10:18:18;;;;;;;61.37;30.03;;;;;;;7.71;48.28;95403.28;4973143;28;20278;-75
2022/12/21 10:20:59;;;;;;;55.70;27.20;;;;;;;7.64;47.93;95397.13;4975019;28;20174;-76
2022/12/21 10:23:34;;;;;;;58.20;28.53;;;;;;;7.54;47.43;95383.47;4971727;28;20184;-75
2022/12/21 10:26:04;;;;;;;57.90;27.73;;;;;;;7.32;48.15;95379.13;4991773;28;20180;-75
2022/12/21 10:28:52;;;;;;;53.67;27.30;;;;;;;7.27;47.97;95376.22;4991982;28;20532;-75
2022/12/21 10:31:27;;;;;;;52.47;26.07;;;;;;;7.09;48.67;95376.56;4989410;28;20288;-75
2022/12/21 10:33:56;;;;;;;56.83;28.73;;;;;;;6.95;48.64;95366.81;4979036;28;20548;-75
2022/12/21 10:36:33;;;;;;;57.33;27.40;;;;;;;6.81;49.98;95364.00;4991393;28;20534;-74
2022/12/21 10:38:59;;;;;;;50.20;26.20;;;;;;;6.76;49.61;95371.53;4986202;28;20248;-74
2022/12/21 10:41:31;;;;;;;45.10;24.73;;;;;;;6.73;49.84;95373.72;4971528;28;20188;-74
2022/12/21 10:43:59;;;;;;;48.93;23.57;;;;;;;6.64;50.15;95366.91;4972567;28;20237;-75
2022/12/21 10:46:31;;;;;;;46.83;23.40;;;;;;;6.55;49.96;95360.09;4971734;28;20664;-74
2022/12/21 10:49:02;;;;;;;46.00;22.97;;;;;;;6.39;49.95;95335.69;4972147;28;20649;-75
2022/12/21 10:51:32;;;;;;;44.70;22.23;;;;;;;6.51;50.24;95358.81;4971979;28;20187;-75
2022/12/21 10:54:06;;;;;;;46.37;22.73;;;;;;;6.41;50.24;95336.31;4971993;28;20301;-75
2022/12/21 10:56:45;;;;;;;47.03;23.07;;;;;;;6.58;50.23;95350.09;4970564;28;20552;-74
2022/12/21 10:59:29;;;;;;;45.30;22.30;;;;;;;6.58;50.30;95351.88;4971852;28;20200;-75
2022/12/21 11:01:55;;;;;;;38.70;20.37;;;;;;;6.52;49.89;95349.97;4971844;28;20265;-75
2022/12/21 11:04:23;;;;;;;44.63;21.97;;;;;;;6.52;50.20;95349.97;4971433;28;20296;-75
2022/12/21 11:07:23;;;;;;;42.97;20.53;;;;;;;6.52;50.57;95336.91;4971667;28;20173;-74
2022/12/21 11:09:58;;;;;;;41.93;21.03;;;;;;;6.53;50.80;95338.53;4970204;28;20194;-75
2022/12/21 11:12:24;;;;;;;37.73;21.43;;;;;;;6.56;51.45;95338.19;4971716;28;20675;-75
2022/12/21 11:14:52;;;;;;;47.17;21.00;;;;;;;6.49;49.78;95329.41;4971477;28;20184;-75
2022/12/21 11:17:27;;;;;;;42.40;22.33;;;;;;;6.31;51.23;95308.78;4971552;28;20241;-75
2022/12/21 11:20:19;;;;;;;42.33;20.67;;;;;;;6.48;50.76;95323.38;4971302;28;20193;-75
2022/12/21 11:22:46;;;;;;;38.17;20.07;;;;;;;6.37;50.06;95303.66;4971640;28;20236;-75
2022/12/21 11:25:16;;;;;;;42.80;20.43;;;;;;;6.51;50.41;95314.34;4971454;28;20174;-74
2022/12/21 11:27:45;;;;;;;40.07;19.47;;;;;;;6.48;50.10;95309.47;4971341;28;20177;-74
2022/12/21 11:30:19;;;;;;;37.80;20.30;;;;;;;6.57;50.57;95313.66;4971384;28;20170;-75
2022/12/21 11:32:47;;;;;;;35.27;18.63;;;;;;;6.46;50.13;95293.16;4971240;28;20652;-75
2022/12/21 11:35:25;;;;;;;39.07;20.30;;;;;;;6.61;50.67;95294.00;4971504;28;20641;-75
2022/12/21 11:37:55;;;;;;;41.60;19.53;;;;;;;6.67;50.26;95303.75;4971286;28;20178;-75
2022/12/21 11:40:27;;;;;;;35.80;20.33;;;;;;;6.67;50.16;95299.34;4971276;28;20693;-75
2022/12/21 11:42:58;;;;;;;38.80;19.87;;;;;;;6.62;49.69;95296.44;4971280;28;20174;-75
2022/12/21 11:45:25;;;;;;;42.83;19.60;;;;;;;6.63;50.18;95298.09;4971182;28;20269;-75